createdAt,value
2022-08-18T00:00:00.000Z,48
2022-08-18T00:02:00.000Z,48
2022-08-18T00:04:00.000Z,48
2022-08-18T00:06:00.000Z,48
2022-08-18T00:08:00.000Z,48
2022-08-18T00:10:00.000Z,48
2022-08-18T00:12:00.000Z,48
2022-08-18T00:14:00.000Z,48
2022-08-18T00:16:00.000Z,48
2022-08-18T00:18:00.000Z,48
2022-08-18T00:20:00.000Z,48
2022-08-18T00:22:00.000Z,48
2022-08-18T00:24:00.000Z,48
2022-08-18T00:26:00.000Z,48
2022-08-18T00:28:00.000Z,48
2022-08-18T00:30:00.000Z,48
2022-08-18T00:32:00.000Z,48
2022-08-18T00:34:00.000Z,48
2022-08-18T00:36:00.000Z,48
2022-08-18T00:38:00.000Z,48
2022-08-18T00:40:00.000Z,48
2022-08-18T00:42:00.000Z,48
2022-08-18T00:44:00.000Z,48
2022-08-18T00:46:00.000Z,48
2022-08-18T00:48:00.000Z,48
2022-08-18T00:50:00.000Z,48
2022-08-18T00:52:00.000Z,48
2022-08-18T00:54:00.000Z,48
2022-08-18T00:56:00.000Z,48
2022-08-18T00:58:00.000Z,48
2022-08-18T01:00:00.000Z,48
2022-08-18T01:02:00.000Z,48
2022-08-18T01:04:00.000Z,48
2022-08-18T01:06:00.000Z,48
2022-08-18T01:08:00.000Z,48
2022-08-18T01:10:00.000Z,48
2022-08-18T01:12:00.000Z,48
2022-08-18T01:14:00.000Z,48
2022-08-18T01:16:00.000Z,48
2022-08-18T01:18:00.000Z,48
2022-08-18T01:20:00.000Z,48
2022-08-18T01:22:00.000Z,48
2022-08-18T01:24:00.000Z,48
2022-08-18T01:26:00.000Z,48
2022-08-18T01:28:00.000Z,48
2022-08-18T01:30:00.000Z,48
2022-08-18T01:32:00.000Z,48
2022-08-18T01:34:00.000Z,48
2022-08-18T01:36:00.000Z,48
2022-08-18T01:38:00.000Z,48
2022-08-18T01:40:00.000Z,48
2022-08-18T01:42:00.000Z,48
2022-08-18T01:44:00.000Z,48
2022-08-18T01:46:00.000Z,48
2022-08-18T01:48:00.000Z,48
2022-08-18T01:50:00.000Z,48
2022-08-18T01:52:00.000Z,48
2022-08-18T01:54:00.000Z,48
2022-08-18T01:56:00.000Z,48
2022-08-18T01:58:00.000Z,48
2022-08-18T02:00:00.000Z,48
2022-08-18T02:02:00.000Z,48
2022-08-18T02:04:00.000Z,48
2022-08-18T02:06:00.000Z,48
2022-08-18T02:08:00.000Z,48
2022-08-18T02:10:00.000Z,48
2022-08-18T02:12:00.000Z,48
2022-08-18T02:14:00.000Z,48
2022-08-18T02:16:00.000Z,48
2022-08-18T02:18:00.000Z,48
2022-08-18T02:20:00.000Z,48
2022-08-18T02:22:00.000Z,48
2022-08-18T02:24:00.000Z,48
2022-08-18T02:26:00.000Z,48
2022-08-18T02:28:00.000Z,48
2022-08-18T02:30:00.000Z,48
2022-08-18T02:32:00.000Z,48
2022-08-18T02:34:00.000Z,48
2022-08-18T02:36:00.000Z,48
2022-08-18T02:38:00.000Z,48
2022-08-18T02:40:00.000Z,48
2022-08-18T02:42:00.000Z,48
2022-08-18T02:44:00.000Z,48
2022-08-18T02:46:00.000Z,48
2022-08-18T02:48:00.000Z,48
2022-08-18T02:50:00.000Z,48
2022-08-18T02:52:00.000Z,48
2022-08-18T02:54:00.000Z,48
2022-08-18T02:56:00.000Z,48
2022-08-18T02:58:00.000Z,48
2022-08-18T03:00:00.000Z,48
2022-08-18T03:02:00.000Z,48
2022-08-18T03:04:00.000Z,48
2022-08-18T03:06:00.000Z,48
2022-08-18T03:08:00.000Z,48
2022-08-18T03:10:00.000Z,48
2022-08-18T03:12:00.000Z,48
2022-08-18T03:14:00.000Z,48
2022-08-18T03:16:00.000Z,48
2022-08-18T03:18:00.000Z,48
2022-08-18T03:20:00.000Z,48
2022-08-18T03:22:00.000Z,48
2022-08-18T03:24:00.000Z,48
2022-08-18T03:26:00.000Z,48
2022-08-18T03:28:00.000Z,48
2022-08-18T03:30:00.000Z,48
2022-08-18T03:32:00.000Z,48
2022-08-18T03:34:00.000Z,48
2022-08-18T03:36:00.000Z,48
2022-08-18T03:38:00.000Z,48
2022-08-18T03:40:00.000Z,48
2022-08-18T03:42:00.000Z,48
2022-08-18T03:44:00.000Z,48
2022-08-18T03:46:00.000Z,48
2022-08-18T03:48:00.000Z,48
2022-08-18T03:50:00.000Z,48
2022-08-18T03:52:00.000Z,48
2022-08-18T03:54:00.000Z,48
2022-08-18T03:56:00.000Z,48
2022-08-18T03:58:00.000Z,48
2022-08-18T04:00:00.000Z,48
2022-08-18T04:02:00.000Z,48
2022-08-18T04:04:00.000Z,48
2022-08-18T04:06:00.000Z,48
2022-08-18T04:08:00.000Z,48
2022-08-18T04:10:00.000Z,48
2022-08-18T04:12:00.000Z,48
2022-08-18T04:14:00.000Z,48
2022-08-18T04:16:00.000Z,48
2022-08-18T04:18:00.000Z,48
2022-08-18T04:20:00.000Z,48
2022-08-18T04:22:00.000Z,48
2022-08-18T04:24:00.000Z,48
2022-08-18T04:26:00.000Z,48
2022-08-18T04:28:00.000Z,48
2022-08-18T04:30:00.000Z,48
2022-08-18T04:32:00.000Z,48
2022-08-18T04:34:00.000Z,48
2022-08-18T04:36:00.000Z,48
2022-08-18T04:38:00.000Z,48
2022-08-18T04:40:00.000Z,48
2022-08-18T04:42:00.000Z,48
2022-08-18T04:44:00.000Z,48
2022-08-18T04:46:00.000Z,48
2022-08-18T04:48:00.000Z,48
2022-08-18T04:50:00.000Z,48
2022-08-18T04:52:00.000Z,48
2022-08-18T04:54:00.000Z,48
2022-08-18T04:56:00.000Z,48
2022-08-18T04:58:00.000Z,48
2022-08-18T05:00:00.000Z,48
2022-08-18T05:02:00.000Z,48
2022-08-18T05:04:00.000Z,48
2022-08-18T05:06:00.000Z,48
2022-08-18T05:08:00.000Z,48
2022-08-18T05:10:00.000Z,48
2022-08-18T05:12:00.000Z,48
2022-08-18T05:14:00.000Z,48
2022-08-18T05:16:00.000Z,48
2022-08-18T05:18:00.000Z,48
2022-08-18T05:20:00.000Z,48
2022-08-18T05:22:00.000Z,48
2022-08-18T05:24:00.000Z,36
2022-08-18T05:28:00.000Z,36
2022-08-18T05:30:00.000Z,36
2022-08-18T05:32:00.000Z,36
2022-08-18T05:34:00.000Z,36
2022-08-18T05:36:00.000Z,84
2022-08-18T05:38:00.000Z,84
2022-08-18T05:40:00.000Z,24
2022-08-18T05:42:00.000Z,96
2022-08-18T05:44:00.000Z,323
2022-08-18T05:46:00.000Z,276
2022-08-18T05:48:00.000Z,162
2022-08-18T05:50:00.000Z,162
2022-08-18T05:52:00.000Z,330
2022-08-18T05:54:00.000Z,330
2022-08-18T05:56:00.000Z,330
2022-08-18T05:58:00.000Z,330
2022-08-18T06:00:00.000Z,294
2022-08-18T06:02:00.000Z,290
2022-08-18T06:04:00.000Z,72
2022-08-18T06:06:00.000Z,288
2022-08-18T06:08:00.000Z,295
2022-08-18T06:10:00.000Z,295
2022-08-18T06:12:00.000Z,330
2022-08-18T06:14:00.000Z,330
2022-08-18T06:16:00.000Z,330
2022-08-18T06:18:00.000Z,330
2022-08-18T06:20:00.000Z,283
2022-08-18T06:22:00.000Z,313
2022-08-18T06:24:00.000Z,313
2022-08-18T06:26:00.000Z,326
2022-08-18T06:28:00.000Z,224
2022-08-18T06:30:00.000Z,335
2022-08-18T06:32:00.000Z,18
2022-08-18T06:34:00.000Z,12
2022-08-18T06:36:00.000Z,288
2022-08-18T06:38:00.000Z,276
2022-08-18T06:40:00.000Z,312
2022-08-18T06:42:00.000Z,293
2022-08-18T06:44:00.000Z,336
2022-08-18T06:46:00.000Z,282
2022-08-18T06:48:00.000Z,339
2022-08-18T06:50:00.000Z,84
2022-08-18T06:52:00.000Z,289
2022-08-18T06:54:00.000Z,311
2022-08-18T06:56:00.000Z,311
2022-08-18T06:58:00.000Z,311
2022-08-18T07:00:00.000Z,18
2022-08-18T07:02:00.000Z,18
2022-08-18T07:04:00.000Z,302
2022-08-18T07:06:00.000Z,299
2022-08-18T07:08:00.000Z,305
2022-08-18T07:10:00.000Z,358
2022-08-18T07:12:00.000Z,36
2022-08-18T07:14:00.000Z,36
2022-08-18T07:16:00.000Z,36
2022-08-18T07:18:00.000Z,36
2022-08-18T07:20:00.000Z,305
2022-08-18T07:22:00.000Z,320
2022-08-18T07:24:00.000Z,294
2022-08-18T07:26:00.000Z,280
2022-08-18T07:28:00.000Z,285
2022-08-18T07:30:00.000Z,285
2022-08-18T07:32:00.000Z,312
2022-08-18T07:34:00.000Z,210
2022-08-18T07:36:00.000Z,256
2022-08-18T07:38:00.000Z,301
2022-08-18T07:40:00.000Z,299
2022-08-18T07:42:00.000Z,312
2022-08-18T07:44:00.000Z,301
2022-08-18T07:46:00.000Z,289
2022-08-18T07:48:00.000Z,283
2022-08-18T07:50:00.000Z,311
2022-08-18T07:52:00.000Z,291
2022-08-18T07:54:00.000Z,300
2022-08-18T07:56:00.000Z,324
2022-08-18T07:58:00.000Z,324
2022-08-18T08:00:00.000Z,346
2022-08-18T08:02:00.000Z,312
2022-08-18T08:04:00.000Z,282
2022-08-18T08:06:00.000Z,240
2022-08-18T08:08:00.000Z,285
2022-08-18T08:10:00.000Z,283
2022-08-18T08:12:00.000Z,311
2022-08-18T08:14:00.000Z,286
2022-08-18T08:16:00.000Z,24
2022-08-18T08:18:00.000Z,308
2022-08-18T08:20:00.000Z,315
2022-08-18T08:22:00.000Z,276
2022-08-18T08:24:00.000Z,312
2022-08-18T08:26:00.000Z,354
2022-08-18T08:28:00.000Z,114
2022-08-18T08:30:00.000Z,328
2022-08-18T08:32:00.000Z,345
2022-08-18T08:34:00.000Z,150
2022-08-18T08:36:00.000Z,332
2022-08-18T08:38:00.000Z,318
2022-08-18T08:40:00.000Z,342
2022-08-18T08:42:00.000Z,294
2022-08-18T08:44:00.000Z,286
2022-08-18T08:46:00.000Z,299
2022-08-18T08:48:00.000Z,342
2022-08-18T08:50:00.000Z,311
2022-08-18T08:52:00.000Z,293
2022-08-18T08:54:00.000Z,306
2022-08-18T08:56:00.000Z,291
2022-08-18T08:58:00.000Z,307
2022-08-18T09:02:00.000Z,303
2022-08-18T09:04:00.000Z,342
2022-08-18T09:06:00.000Z,335
2022-08-18T09:08:00.000Z,330
2022-08-18T09:10:00.000Z,328
2022-08-18T09:12:00.000Z,84
2022-08-18T09:14:00.000Z,329
2022-08-18T09:16:00.000Z,156
2022-08-18T09:18:00.000Z,300
2022-08-18T09:20:00.000Z,283
2022-08-18T09:22:00.000Z,305
2022-08-18T09:24:00.000Z,270
2022-08-18T09:26:00.000Z,283
2022-08-18T09:28:00.000Z,284
2022-08-18T09:30:00.000Z,299
2022-08-18T09:32:00.000Z,49
2022-08-18T09:34:00.000Z,315
2022-08-18T09:36:00.000Z,336
2022-08-18T09:38:00.000Z,295
2022-08-18T09:40:00.000Z,323
2022-08-18T09:42:00.000Z,304
2022-08-18T09:44:00.000Z,282
2022-08-18T09:46:00.000Z,288
2022-08-18T09:48:00.000Z,282
2022-08-18T09:50:00.000Z,96
2022-08-18T09:52:00.000Z,341
2022-08-18T09:54:00.000Z,252
2022-08-18T09:56:00.000Z,276
2022-08-18T09:58:00.000Z,291
2022-08-18T10:00:00.000Z,324
2022-08-18T10:02:00.000Z,336
2022-08-18T10:04:00.000Z,336
2022-08-18T10:06:00.000Z,327
2022-08-18T10:08:00.000Z,258
2022-08-18T10:12:00.000Z,306
2022-08-18T10:14:00.000Z,240
2022-08-18T10:16:00.000Z,324
2022-08-18T10:18:00.000Z,288
2022-08-18T10:20:00.000Z,332
2022-08-18T10:22:00.000Z,294
2022-08-18T10:24:00.000Z,264
2022-08-18T10:26:00.000Z,309
2022-08-18T10:28:00.000Z,204
2022-08-18T10:30:00.000Z,132
2022-08-18T10:32:00.000Z,276
2022-08-18T10:34:00.000Z,345
2022-08-18T10:36:00.000Z,342
2022-08-18T10:38:00.000Z,269
2022-08-18T10:40:00.000Z,288
2022-08-18T10:42:00.000Z,299
2022-08-18T10:44:00.000Z,318
2022-08-18T10:46:00.000Z,292
2022-08-18T10:48:00.000Z,331
2022-08-18T10:50:00.000Z,329
2022-08-18T10:52:00.000Z,270
2022-08-18T10:54:00.000Z,294
2022-08-18T10:56:00.000Z,24
2022-08-18T10:58:00.000Z,293
2022-08-18T11:00:00.000Z,342
2022-08-18T11:02:00.000Z,328
2022-08-18T11:04:00.000Z,49
2022-08-18T11:06:00.000Z,336
2022-08-18T11:08:00.000Z,341
2022-08-18T11:10:00.000Z,288
2022-08-18T11:12:00.000Z,102
2022-08-18T11:14:00.000Z,251
2022-08-18T11:16:00.000Z,331
2022-08-18T11:18:00.000Z,210
2022-08-18T11:20:00.000Z,263
2022-08-18T11:22:00.000Z,281
2022-08-18T11:24:00.000Z,270
2022-08-18T11:26:00.000Z,336
2022-08-18T11:28:00.000Z,358
2022-08-18T11:30:00.000Z,296
2022-08-18T11:34:00.000Z,300
2022-08-18T11:36:00.000Z,323
2022-08-18T11:38:00.000Z,300
2022-08-18T11:40:00.000Z,312
2022-08-18T11:42:00.000Z,353
2022-08-18T11:44:00.000Z,324
2022-08-18T11:46:00.000Z,300
2022-08-18T11:48:00.000Z,276
2022-08-18T11:50:00.000Z,321
2022-08-18T11:52:00.000Z,322
2022-08-18T11:54:00.000Z,292
2022-08-18T11:56:00.000Z,61
2022-08-18T11:58:00.000Z,303
2022-08-18T12:00:00.000Z,312
2022-08-18T12:02:00.000Z,265
2022-08-18T12:04:00.000Z,300
2022-08-18T12:06:00.000Z,81
2022-08-18T12:08:00.000Z,222
2022-08-18T12:10:00.000Z,264
2022-08-18T12:12:00.000Z,324
2022-08-18T12:14:00.000Z,347
2022-08-18T12:16:00.000Z,234
2022-08-18T12:18:00.000Z,332
2022-08-18T12:20:00.000Z,186
2022-08-18T12:22:00.000Z,317
2022-08-18T12:24:00.000Z,312
2022-08-18T12:26:00.000Z,323
2022-08-18T12:28:00.000Z,353
2022-08-18T12:30:00.000Z,338
2022-08-18T12:32:00.000Z,108
2022-08-18T12:34:00.000Z,332
2022-08-18T12:36:00.000Z,277
2022-08-18T12:38:00.000Z,312
2022-08-18T12:40:00.000Z,294
2022-08-18T12:42:00.000Z,299
2022-08-18T12:44:00.000Z,298
2022-08-18T12:46:00.000Z,331
2022-08-18T12:48:00.000Z,331
2022-08-18T12:50:00.000Z,306
2022-08-18T12:52:00.000Z,300
2022-08-18T12:54:00.000Z,174
2022-08-18T12:56:00.000Z,240
2022-08-18T12:58:00.000Z,234
2022-08-18T13:00:00.000Z,282
2022-08-18T13:02:00.000Z,282
2022-08-18T13:04:00.000Z,336
2022-08-18T13:06:00.000Z,348
2022-08-18T13:08:00.000Z,324
2022-08-18T13:10:00.000Z,94
2022-08-18T13:12:00.000Z,102
2022-08-18T13:14:00.000Z,4
2022-08-18T13:16:00.000Z,294
2022-08-18T13:18:00.000Z,282
2022-08-18T13:20:00.000Z,337
2022-08-18T13:22:00.000Z,294
2022-08-18T13:24:00.000Z,300
2022-08-18T13:26:00.000Z,324
2022-08-18T13:28:00.000Z,288
2022-08-18T13:30:00.000Z,294
2022-08-18T13:32:00.000Z,225
2022-08-18T13:34:00.000Z,306
2022-08-18T13:36:00.000Z,318
2022-08-18T13:38:00.000Z,318
2022-08-18T13:40:00.000Z,282
2022-08-18T13:42:00.000Z,274
2022-08-18T13:44:00.000Z,278
2022-08-18T13:46:00.000Z,330
2022-08-18T13:48:00.000Z,329
2022-08-18T13:50:00.000Z,322
2022-08-18T13:52:00.000Z,258
2022-08-18T13:54:00.000Z,288
2022-08-18T13:56:00.000Z,322
2022-08-18T13:58:00.000Z,174
2022-08-18T14:00:00.000Z,286
2022-08-18T14:02:00.000Z,303
2022-08-18T14:04:00.000Z,303
2022-08-18T14:06:00.000Z,292
2022-08-18T14:08:00.000Z,255
2022-08-18T14:10:00.000Z,306
2022-08-18T14:12:00.000Z,8
2022-08-18T14:14:00.000Z,354
2022-08-18T14:16:00.000Z,312
2022-08-18T14:18:00.000Z,228
2022-08-18T14:20:00.000Z,275
2022-08-18T14:22:00.000Z,84
2022-08-18T14:24:00.000Z,56
2022-08-18T14:26:00.000Z,324
2022-08-18T14:28:00.000Z,316
2022-08-18T14:30:00.000Z,192
2022-08-18T14:32:00.000Z,276
2022-08-18T14:34:00.000Z,276
2022-08-18T14:36:00.000Z,288
2022-08-18T14:38:00.000Z,324
2022-08-18T14:40:00.000Z,236
2022-08-18T14:42:00.000Z,318
2022-08-18T14:44:00.000Z,316
2022-08-18T14:46:00.000Z,316
2022-08-18T14:48:00.000Z,110
2022-08-18T14:50:00.000Z,312
2022-08-18T14:52:00.000Z,317
2022-08-18T14:54:00.000Z,298
2022-08-18T14:56:00.000Z,54
2022-08-18T14:58:00.000Z,306
2022-08-18T15:00:00.000Z,336
2022-08-18T15:02:00.000Z,276
2022-08-18T15:04:00.000Z,288
2022-08-18T15:06:00.000Z,276
2022-08-18T15:08:00.000Z,311
2022-08-18T15:10:00.000Z,102
2022-08-18T15:12:00.000Z,264
2022-08-18T15:14:00.000Z,286
2022-08-18T15:16:00.000Z,289
2022-08-18T15:18:00.000Z,299
2022-08-18T15:20:00.000Z,341
2022-08-18T15:22:00.000Z,324
2022-08-18T15:24:00.000Z,348
2022-08-18T15:26:00.000Z,333
2022-08-18T15:28:00.000Z,294
2022-08-18T15:30:00.000Z,318
2022-08-18T15:32:00.000Z,294
2022-08-18T15:34:00.000Z,268
2022-08-18T15:36:00.000Z,295
2022-08-18T15:38:00.000Z,295
2022-08-18T15:40:00.000Z,298
2022-08-18T15:42:00.000Z,292
2022-08-18T15:44:00.000Z,294
2022-08-18T15:46:00.000Z,336
2022-08-18T15:48:00.000Z,294
2022-08-18T15:50:00.000Z,294
2022-08-18T15:52:00.000Z,276
2022-08-18T15:54:00.000Z,276
2022-08-18T15:56:00.000Z,298
2022-08-18T15:58:00.000Z,336
2022-08-18T16:00:00.000Z,324
2022-08-18T16:02:00.000Z,295
2022-08-18T16:04:00.000Z,309
2022-08-18T16:06:00.000Z,309
2022-08-18T16:08:00.000Z,296
2022-08-18T16:10:00.000Z,287
2022-08-18T16:12:00.000Z,287
2022-08-18T16:14:00.000Z,287
2022-08-18T16:16:00.000Z,287
2022-08-18T16:18:00.000Z,287
2022-08-18T16:20:00.000Z,287
2022-08-18T16:22:00.000Z,287
2022-08-18T16:24:00.000Z,287
2022-08-18T16:26:00.000Z,331
2022-08-18T16:28:00.000Z,329
2022-08-18T16:30:00.000Z,317
2022-08-18T16:32:00.000Z,323
2022-08-18T16:34:00.000Z,312
2022-08-18T16:36:00.000Z,312
2022-08-18T16:38:00.000Z,294
2022-08-18T16:40:00.000Z,306
2022-08-18T16:42:00.000Z,290
2022-08-18T16:44:00.000Z,331
2022-08-18T16:46:00.000Z,330
2022-08-18T16:48:00.000Z,330
2022-08-18T16:50:00.000Z,330
2022-08-18T16:52:00.000Z,306
2022-08-18T16:54:00.000Z,318
2022-08-18T16:56:00.000Z,318
2022-08-18T16:58:00.000Z,318
2022-08-18T17:00:00.000Z,267
2022-08-18T17:02:00.000Z,267
2022-08-18T17:04:00.000Z,267
2022-08-18T17:06:00.000Z,269
2022-08-18T17:08:00.000Z,316
2022-08-18T17:10:00.000Z,324
2022-08-18T17:12:00.000Z,328
2022-08-18T17:14:00.000Z,328
2022-08-18T17:16:00.000Z,328
2022-08-18T17:18:00.000Z,328
2022-08-18T17:20:00.000Z,324
2022-08-18T17:22:00.000Z,324
2022-08-18T17:24:00.000Z,312
2022-08-18T17:26:00.000Z,303
2022-08-18T17:28:00.000Z,306
2022-08-18T17:30:00.000Z,312
2022-08-18T17:32:00.000Z,312
2022-08-18T17:34:00.000Z,318
2022-08-18T17:36:00.000Z,321
2022-08-18T17:38:00.000Z,317
2022-08-18T17:40:00.000Z,228
2022-08-18T17:42:00.000Z,334
2022-08-18T17:44:00.000Z,324
2022-08-18T17:46:00.000Z,306
2022-08-18T17:48:00.000Z,312
2022-08-18T17:50:00.000Z,312
2022-08-18T17:52:00.000Z,321
2022-08-18T17:54:00.000Z,316
2022-08-18T17:56:00.000Z,287
2022-08-18T17:58:00.000Z,323
2022-08-18T18:00:00.000Z,315
2022-08-18T18:02:00.000Z,318
2022-08-18T18:04:00.000Z,306
2022-08-18T18:06:00.000Z,318
2022-08-18T18:08:00.000Z,309
2022-08-18T18:10:00.000Z,300
2022-08-18T18:12:00.000Z,324
2022-08-18T18:14:00.000Z,312
2022-08-18T18:16:00.000Z,298
2022-08-18T18:18:00.000Z,292
2022-08-18T18:20:00.000Z,315
2022-08-18T18:22:00.000Z,315
2022-08-18T18:24:00.000Z,317
2022-08-18T18:26:00.000Z,318
2022-08-18T18:28:00.000Z,299
2022-08-18T18:30:00.000Z,322
2022-08-18T18:32:00.000Z,321
2022-08-18T18:34:00.000Z,310
2022-08-18T18:36:00.000Z,323
2022-08-18T18:38:00.000Z,300
2022-08-18T18:40:00.000Z,298
2022-08-18T18:42:00.000Z,330
2022-08-18T18:44:00.000Z,318
2022-08-18T18:46:00.000Z,315
2022-08-18T18:48:00.000Z,317
2022-08-18T18:50:00.000Z,318
2022-08-18T18:52:00.000Z,304
2022-08-18T18:54:00.000Z,306
2022-08-18T18:56:00.000Z,301
2022-08-18T18:58:00.000Z,316
2022-08-18T19:00:00.000Z,316
2022-08-18T19:02:00.000Z,324
2022-08-18T19:04:00.000Z,279
2022-08-18T19:06:00.000Z,306
2022-08-18T19:08:00.000Z,306
2022-08-18T19:10:00.000Z,306
2022-08-18T19:12:00.000Z,321
2022-08-18T19:14:00.000Z,299
2022-08-18T19:16:00.000Z,309
2022-08-18T19:18:00.000Z,300
2022-08-18T19:20:00.000Z,306
2022-08-18T19:22:00.000Z,306
2022-08-18T19:24:00.000Z,303
2022-08-18T19:26:00.000Z,311
2022-08-18T19:28:00.000Z,311
2022-08-18T19:30:00.000Z,311
2022-08-18T19:32:00.000Z,311
2022-08-18T19:34:00.000Z,276
2022-08-18T19:36:00.000Z,294
2022-08-18T19:38:00.000Z,306
2022-08-18T19:40:00.000Z,306
2022-08-18T19:42:00.000Z,318
2022-08-18T19:44:00.000Z,318
2022-08-18T19:46:00.000Z,318
2022-08-18T19:48:00.000Z,312
2022-08-18T19:50:00.000Z,312
2022-08-18T19:52:00.000Z,312
2022-08-18T19:54:00.000Z,312
2022-08-18T19:56:00.000Z,310
2022-08-18T19:58:00.000Z,310
2022-08-18T20:00:00.000Z,310
2022-08-18T20:02:00.000Z,312
2022-08-18T20:04:00.000Z,307
2022-08-18T20:06:00.000Z,317
2022-08-18T20:08:00.000Z,315
2022-08-18T20:10:00.000Z,318
2022-08-18T20:12:00.000Z,317
2022-08-18T20:14:00.000Z,317
2022-08-18T20:16:00.000Z,306
2022-08-18T20:18:00.000Z,307
2022-08-18T20:20:00.000Z,270
2022-08-18T20:22:00.000Z,302
2022-08-18T20:24:00.000Z,313
2022-08-18T20:26:00.000Z,312
2022-08-18T20:28:00.000Z,288
2022-08-18T20:30:00.000Z,293
2022-08-18T20:32:00.000Z,335
2022-08-18T20:34:00.000Z,307
2022-08-18T20:36:00.000Z,324
2022-08-18T20:38:00.000Z,306
2022-08-18T20:40:00.000Z,311
2022-08-18T20:42:00.000Z,312
2022-08-18T20:44:00.000Z,318
2022-08-18T20:46:00.000Z,268
2022-08-18T20:48:00.000Z,292
2022-08-18T20:50:00.000Z,340
2022-08-18T20:52:00.000Z,342
2022-08-18T20:54:00.000Z,336
2022-08-18T20:56:00.000Z,311
2022-08-18T20:58:00.000Z,311
2022-08-18T21:00:00.000Z,317
2022-08-18T21:02:00.000Z,307
2022-08-18T21:04:00.000Z,336
2022-08-18T21:06:00.000Z,304
2022-08-18T21:08:00.000Z,317
2022-08-18T21:10:00.000Z,306
2022-08-18T21:12:00.000Z,299
2022-08-18T21:14:00.000Z,284
2022-08-18T21:16:00.000Z,330
2022-08-18T21:18:00.000Z,292
2022-08-18T21:20:00.000Z,320
2022-08-18T21:22:00.000Z,301
2022-08-18T21:24:00.000Z,300
2022-08-18T21:26:00.000Z,304
2022-08-18T21:28:00.000Z,317
2022-08-18T21:30:00.000Z,318
2022-08-18T21:32:00.000Z,342
2022-08-18T21:34:00.000Z,309
2022-08-18T21:36:00.000Z,318
2022-08-18T21:38:00.000Z,324
2022-08-18T21:40:00.000Z,317
2022-08-18T21:42:00.000Z,311
2022-08-18T21:44:00.000Z,289
2022-08-18T21:46:00.000Z,310
2022-08-18T21:48:00.000Z,310
2022-08-18T21:50:00.000Z,321
2022-08-18T21:52:00.000Z,307
2022-08-18T21:54:00.000Z,300
2022-08-18T21:56:00.000Z,300
2022-08-18T21:58:00.000Z,311
2022-08-18T22:00:00.000Z,311
2022-08-18T22:02:00.000Z,311
2022-08-18T22:04:00.000Z,311
2022-08-18T22:06:00.000Z,311
2022-08-18T22:08:00.000Z,322
2022-08-18T22:10:00.000Z,323
2022-08-18T22:12:00.000Z,318
2022-08-18T22:14:00.000Z,318
2022-08-18T22:16:00.000Z,318
2022-08-18T22:18:00.000Z,324
2022-08-18T22:20:00.000Z,324
2022-08-18T22:22:00.000Z,36
2022-08-18T22:24:00.000Z,36
2022-08-18T22:26:00.000Z,36
2022-08-18T22:28:00.000Z,60
2022-08-18T22:30:00.000Z,60
2022-08-18T22:32:00.000Z,60
2022-08-18T22:34:00.000Z,60
2022-08-18T22:36:00.000Z,60
2022-08-18T22:38:00.000Z,60
2022-08-18T22:40:00.000Z,60
2022-08-18T22:42:00.000Z,60
2022-08-18T22:44:00.000Z,60
2022-08-18T22:46:00.000Z,60
2022-08-18T22:48:00.000Z,60
2022-08-18T22:50:00.000Z,60
2022-08-18T22:52:00.000Z,60
2022-08-18T22:54:00.000Z,60
2022-08-18T22:56:00.000Z,60
2022-08-18T22:58:00.000Z,60
2022-08-18T23:00:00.000Z,60
2022-08-18T23:02:00.000Z,60
2022-08-18T23:04:00.000Z,60
2022-08-18T23:06:00.000Z,60
2022-08-18T23:08:00.000Z,336
2022-08-18T23:10:00.000Z,336
2022-08-18T23:12:00.000Z,336
2022-08-18T23:14:00.000Z,336
2022-08-18T23:16:00.000Z,336
2022-08-18T23:18:00.000Z,336
2022-08-18T23:20:00.000Z,336
2022-08-18T23:22:00.000Z,336
2022-08-18T23:24:00.000Z,336
2022-08-18T23:26:00.000Z,336
2022-08-18T23:28:00.000Z,336
2022-08-18T23:30:00.000Z,336
2022-08-18T23:32:00.000Z,336
2022-08-18T23:34:00.000Z,336
2022-08-18T23:36:00.000Z,336
2022-08-18T23:38:00.000Z,336
2022-08-18T23:40:00.000Z,336
2022-08-18T23:42:00.000Z,336
2022-08-18T23:44:00.000Z,336
2022-08-18T23:46:00.000Z,336
2022-08-18T23:48:00.000Z,336
2022-08-18T23:50:00.000Z,336
2022-08-18T23:52:00.000Z,336
2022-08-18T23:54:00.000Z,336
2022-08-18T23:56:00.000Z,336
2022-08-18T23:58:00.000Z,336
